createdAt,value
2023-07-19T00:00:41.247Z,77.74
2023-07-19T00:03:09.342Z,76.79
2023-07-19T00:05:37.737Z,76.97
2023-07-19T00:08:06.465Z,76.87
2023-07-19T00:10:34.654Z,77.00
2023-07-19T00:13:04.127Z,76.15
2023-07-19T00:15:32.849Z,74.66
2023-07-19T00:18:00.874Z,71.73
2023-07-19T00:20:29.858Z,72.08
2023-07-19T00:23:00.362Z,74.03
2023-07-19T00:25:28.506Z,75.51
2023-07-19T00:27:56.573Z,75.91
2023-07-19T00:30:26.992Z,76.12
2023-07-19T00:32:55.305Z,76.98
2023-07-19T00:35:23.628Z,77.16
2023-07-19T00:37:52.344Z,76.95
2023-07-19T00:40:20.315Z,76.69
2023-07-19T00:42:48.296Z,77.33
2023-07-19T00:45:16.842Z,77.71
2023-07-19T00:47:47.317Z,77.34
2023-07-19T00:50:15.749Z,77.77
2023-07-19T00:52:45.020Z,77.88
2023-07-19T00:55:14.183Z,77.81
2023-07-19T00:57:44.908Z,77.66
2023-07-19T01:03:42.359Z,78.21
2023-07-19T01:06:11.257Z,78.18
2023-07-19T01:08:39.401Z,78.16
2023-07-19T01:11:09.388Z,78.12
2023-07-19T01:13:38.490Z,77.99
2023-07-19T01:16:07.563Z,77.64
2023-07-19T01:18:35.652Z,77.10
2023-07-19T01:21:21.402Z,77.23
2023-07-19T01:23:51.847Z,77.76
2023-07-19T01:26:20.059Z,77.64
2023-07-19T01:28:48.121Z,77.25
2023-07-19T01:31:17.118Z,77.50
2023-07-19T01:33:46.905Z,77.91
2023-07-19T01:36:15.164Z,78.03
2023-07-19T01:38:49.577Z,78.28
2023-07-19T01:41:19.189Z,77.95
2023-07-19T01:43:47.360Z,78.21
2023-07-19T01:46:15.446Z,78.78
2023-07-19T01:48:43.564Z,78.72
2023-07-19T01:51:11.477Z,78.30
2023-07-19T01:53:39.423Z,78.22
2023-07-19T01:56:07.463Z,79.02
2023-07-19T01:58:37.893Z,79.80
2023-07-19T02:01:06.303Z,79.68
2023-07-19T02:03:34.498Z,80.05
2023-07-19T02:06:03.657Z,79.91
2023-07-19T02:08:31.643Z,79.89
2023-07-19T02:10:59.651Z,80.23
2023-07-19T02:13:27.879Z,79.79
2023-07-19T02:15:57.642Z,79.91
2023-07-19T02:18:25.721Z,80.17
2023-07-19T02:20:56.380Z,80.18
2023-07-19T02:23:25.465Z,80.16
2023-07-19T02:25:53.840Z,79.91
2023-07-19T02:28:23.178Z,80.05
2023-07-19T02:30:54.351Z,80.22
2023-07-19T02:33:23.943Z,80.29
2023-07-19T02:35:57.257Z,79.66
2023-07-19T02:38:28.119Z,80.41
2023-07-19T02:40:59.336Z,80.81
2023-07-19T02:43:28.249Z,81.39
2023-07-19T02:45:56.713Z,81.59
2023-07-19T02:48:29.001Z,82.24
2023-07-19T02:50:59.836Z,82.13
2023-07-19T02:53:28.071Z,82.36
2023-07-19T02:55:56.268Z,82.64
2023-07-19T02:58:24.435Z,83.19
2023-07-19T03:00:55.894Z,83.59
2023-07-19T03:03:24.164Z,83.79
2023-07-19T03:05:53.592Z,84.19
2023-07-19T03:08:21.489Z,84.05
2023-07-19T03:10:54.090Z,83.99
2023-07-19T03:13:22.001Z,83.76
2023-07-19T03:15:50.160Z,83.86
2023-07-19T03:18:18.348Z,84.02
2023-07-19T03:20:47.512Z,84.00
2023-07-19T03:23:18.121Z,83.69
2023-07-19T03:25:46.137Z,84.10
2023-07-19T03:28:15.151Z,84.36
2023-07-19T03:30:44.266Z,84.15
2023-07-19T03:33:12.691Z,84.11
2023-07-19T03:35:40.746Z,83.94
2023-07-19T03:38:09.713Z,83.71
2023-07-19T03:40:39.170Z,83.74
2023-07-19T03:43:07.185Z,83.75
2023-07-19T03:45:35.236Z,83.73
2023-07-19T03:48:03.500Z,83.55
2023-07-19T03:50:34.145Z,83.14
2023-07-19T03:53:05.921Z,83.10
2023-07-19T03:55:34.823Z,82.98
2023-07-19T03:58:06.777Z,82.67
2023-07-19T04:00:36.101Z,82.94
2023-07-19T04:03:04.384Z,82.70
2023-07-19T04:05:32.469Z,82.99
2023-07-19T04:08:02.681Z,82.53
2023-07-19T04:10:33.136Z,82.56
2023-07-19T04:13:01.138Z,82.12
2023-07-19T04:15:30.564Z,82.24
2023-07-19T04:17:59.888Z,82.22
2023-07-19T04:20:29.184Z,82.46
2023-07-19T04:22:57.612Z,81.23
2023-07-19T04:25:26.792Z,81.48
2023-07-19T04:27:55.483Z,82.13
2023-07-19T04:30:23.483Z,82.30
2023-07-19T04:32:57.602Z,82.49
2023-07-19T04:35:25.982Z,82.19
2023-07-19T04:37:56.176Z,81.86
2023-07-19T04:40:24.283Z,82.35
2023-07-19T04:42:52.509Z,82.70
2023-07-19T04:45:20.986Z,83.20
2023-07-19T04:47:50.015Z,82.92
2023-07-19T04:50:20.722Z,82.65
2023-07-19T04:52:49.593Z,81.91
2023-07-19T04:55:17.738Z,81.69
2023-07-19T04:57:45.862Z,81.64
2023-07-19T05:00:16.118Z,82.30
2023-07-19T05:02:45.572Z,83.32
2023-07-19T05:05:15.686Z,83.45
2023-07-19T05:07:45.723Z,82.54
2023-07-19T05:10:13.764Z,81.81
2023-07-19T05:12:42.667Z,81.28
2023-07-19T05:15:11.057Z,79.90
2023-07-19T05:17:39.250Z,80.39
2023-07-19T05:20:08.604Z,80.49
2023-07-19T05:22:37.341Z,81.06
2023-07-19T05:25:08.070Z,78.65
2023-07-19T05:27:36.086Z,79.16
2023-07-19T05:30:04.517Z,78.06
2023-07-19T05:32:33.658Z,79.02
2023-07-19T05:35:01.911Z,78.96
2023-07-19T05:37:30.076Z,79.50
2023-07-19T05:39:59.188Z,79.75
2023-07-19T05:42:28.794Z,77.91
2023-07-19T05:44:57.133Z,79.61
2023-07-19T05:47:25.169Z,79.43
2023-07-19T05:49:53.495Z,79.05
2023-07-19T05:52:21.433Z,79.70
2023-07-19T05:54:49.698Z,79.43
2023-07-19T05:57:17.773Z,77.95
2023-07-19T05:59:47.405Z,77.56
2023-07-19T06:02:15.882Z,76.08
2023-07-19T06:04:44.090Z,76.40
2023-07-19T06:07:12.794Z,75.10
2023-07-19T06:09:40.951Z,76.93
2023-07-19T06:12:09.223Z,76.58
2023-07-19T06:14:38.530Z,75.35
2023-07-19T06:17:09.884Z,73.70
2023-07-19T06:19:38.583Z,73.77
2023-07-19T06:22:07.950Z,74.73
2023-07-19T06:24:36.060Z,74.53
2023-07-19T06:27:04.552Z,74.16
2023-07-19T06:29:32.643Z,73.68
2023-07-19T06:32:00.892Z,72.92
2023-07-19T06:34:30.521Z,74.38
2023-07-19T06:36:59.647Z,74.32
2023-07-19T06:39:27.648Z,75.35
2023-07-19T06:41:55.879Z,76.12
2023-07-19T06:44:24.409Z,73.34
2023-07-19T06:46:56.466Z,74.74
2023-07-19T06:49:24.779Z,75.12
2023-07-19T06:51:54.308Z,74.50
2023-07-19T06:54:22.244Z,73.62
2023-07-19T06:56:50.277Z,73.80
2023-07-19T06:59:18.393Z,73.03
2023-07-19T07:01:46.444Z,72.50
2023-07-19T07:04:15.600Z,70.81
2023-07-19T07:06:44.140Z,72.30
2023-07-19T07:09:16.332Z,72.98
2023-07-19T07:11:44.534Z,69.59
2023-07-19T07:14:15.142Z,70.72
2023-07-19T07:16:43.313Z,70.20
2023-07-19T07:19:12.169Z,72.20
2023-07-19T07:21:40.631Z,71.06
2023-07-19T07:24:09.042Z,71.51
2023-07-19T07:26:40.646Z,72.09
2023-07-19T07:29:08.632Z,70.26
2023-07-19T07:31:36.682Z,69.93
2023-07-19T07:34:04.747Z,70.64
2023-07-19T07:36:33.755Z,69.99
2023-07-19T07:39:01.779Z,70.47
2023-07-19T07:41:30.247Z,70.13
2023-07-19T07:44:00.203Z,70.77
2023-07-19T07:46:30.513Z,68.17
2023-07-19T07:49:01.004Z,68.74
2023-07-19T07:51:30.542Z,69.31
2023-07-19T07:53:58.810Z,67.05
2023-07-19T07:56:27.057Z,67.97
2023-07-19T07:58:55.078Z,68.78
2023-07-19T08:01:25.877Z,68.47
2023-07-19T08:03:54.583Z,68.57
2023-07-19T08:06:22.579Z,69.22
2023-07-19T08:08:51.520Z,69.22
2023-07-19T08:11:21.606Z,69.55
2023-07-19T08:13:49.801Z,68.70
2023-07-19T08:16:19.243Z,68.53
2023-07-19T08:18:48.776Z,69.12
2023-07-19T08:21:29.866Z,69.08
2023-07-19T08:24:03.884Z,68.62
2023-07-19T08:26:31.990Z,68.72
2023-07-19T08:29:00.448Z,69.05
2023-07-19T08:31:29.468Z,68.26
2023-07-19T08:34:00.906Z,67.02
2023-07-19T08:36:33.103Z,68.08
2023-07-19T08:39:01.280Z,67.98
2023-07-19T08:41:31.480Z,67.92
2023-07-19T08:44:00.326Z,67.50
2023-07-19T08:46:28.605Z,67.63
2023-07-19T08:48:56.796Z,66.88
2023-07-19T08:51:26.557Z,67.45
2023-07-19T08:53:55.149Z,68.45
2023-07-19T08:56:23.606Z,66.14
2023-07-19T08:58:51.735Z,66.47
2023-07-19T09:01:20.077Z,67.23
2023-07-19T09:03:48.441Z,66.03
2023-07-19T09:06:24.280Z,65.67
2023-07-19T09:08:57.086Z,67.07
2023-07-19T09:11:25.204Z,65.76
2023-07-19T09:13:55.208Z,63.86
2023-07-19T09:16:27.581Z,66.16
2023-07-19T09:18:55.667Z,67.28
2023-07-19T09:21:38.058Z,65.82
2023-07-19T09:24:08.053Z,64.03
2023-07-19T09:26:52.170Z,65.00
2023-07-19T09:29:20.315Z,65.36
2023-07-19T09:31:55.838Z,63.58
2023-07-19T09:34:24.952Z,63.14
2023-07-19T09:36:53.665Z,58.80
2023-07-19T09:39:23.457Z,58.07
2023-07-19T09:41:51.770Z,56.38
2023-07-19T09:44:19.836Z,58.64
2023-07-19T09:46:47.918Z,60.88
2023-07-19T09:49:16.154Z,59.61
2023-07-19T09:51:46.337Z,58.05
2023-07-19T09:54:16.279Z,58.74
2023-07-19T09:56:46.523Z,56.58
2023-07-19T09:59:21.321Z,56.07
2023-07-19T10:01:49.816Z,52.26
2023-07-19T10:04:25.130Z,54.78
2023-07-19T10:07:03.893Z,56.66
2023-07-19T10:09:32.825Z,54.06
2023-07-19T10:12:07.603Z,51.55
2023-07-19T10:14:36.173Z,52.20
2023-07-19T10:17:07.712Z,49.26
2023-07-19T10:19:38.095Z,50.07
2023-07-19T10:22:06.910Z,49.84
2023-07-19T10:24:35.874Z,50.25
2023-07-19T10:27:06.698Z,48.80
2023-07-19T10:29:44.782Z,48.76
2023-07-19T10:32:13.361Z,48.96
2023-07-19T10:34:45.860Z,47.97
2023-07-19T10:37:14.737Z,45.53
2023-07-19T10:39:42.816Z,48.11
2023-07-19T10:42:12.365Z,47.63
2023-07-19T10:44:40.388Z,49.12
2023-07-19T10:47:08.530Z,48.88
2023-07-19T10:49:36.893Z,48.01
2023-07-19T10:52:05.243Z,49.07
2023-07-19T10:54:45.937Z,46.59
2023-07-19T10:57:26.434Z,46.18
2023-07-19T10:59:54.699Z,48.20
2023-07-19T11:02:23.756Z,46.35
2023-07-19T11:04:52.984Z,46.68
2023-07-19T11:07:32.749Z,46.68
2023-07-19T11:10:02.809Z,45.21
2023-07-19T11:12:32.906Z,45.61
2023-07-19T11:15:04.424Z,44.14
2023-07-19T11:17:32.897Z,44.04
2023-07-19T11:20:01.106Z,42.99
2023-07-19T11:22:29.667Z,42.59
2023-07-19T11:25:30.393Z,43.82
2023-07-19T11:27:59.950Z,43.83
2023-07-19T11:30:39.728Z,44.48
2023-07-19T11:33:08.892Z,43.00
2023-07-19T11:35:37.395Z,42.76
2023-07-19T11:38:05.559Z,40.78
2023-07-19T11:40:34.166Z,40.75
2023-07-19T11:43:03.624Z,40.64
2023-07-19T11:45:32.541Z,40.55
2023-07-19T11:48:02.171Z,41.20
2023-07-19T11:50:30.555Z,39.34
2023-07-19T11:53:00.782Z,41.96
2023-07-19T11:55:28.871Z,40.97
2023-07-19T11:58:04.007Z,38.50
2023-07-19T12:00:34.349Z,40.25
2023-07-19T12:03:04.260Z,41.06
2023-07-19T12:05:33.577Z,41.65
2023-07-19T12:08:01.558Z,38.38
2023-07-19T12:10:29.995Z,38.94
2023-07-19T12:12:58.938Z,38.38
2023-07-19T12:15:29.356Z,39.23
2023-07-19T12:17:59.127Z,37.96
2023-07-19T12:20:28.690Z,39.58
2023-07-19T12:22:56.924Z,38.70
2023-07-19T12:25:28.159Z,39.78
2023-07-19T12:27:59.352Z,40.04
2023-07-19T12:30:28.495Z,40.09
2023-07-19T12:32:56.714Z,39.84
2023-07-19T12:35:55.693Z,39.18
2023-07-19T12:38:25.507Z,39.58
2023-07-19T12:40:58.035Z,37.87
2023-07-19T12:43:27.174Z,39.13
2023-07-19T12:45:56.951Z,37.35
2023-07-19T12:48:26.592Z,37.65
2023-07-19T12:50:54.711Z,39.30
2023-07-19T12:53:25.234Z,34.92
2023-07-19T12:55:55.117Z,36.08
2023-07-19T12:58:27.032Z,37.42
2023-07-19T13:00:55.205Z,34.37
2023-07-19T13:03:27.276Z,33.38
2023-07-19T13:05:55.563Z,34.56
2023-07-19T13:08:23.559Z,34.86
2023-07-19T13:10:54.085Z,32.95
2023-07-19T13:13:22.152Z,33.47
2023-07-19T13:15:51.142Z,35.38
2023-07-19T13:18:19.353Z,34.91
2023-07-19T13:20:47.431Z,34.85
2023-07-19T13:23:20.248Z,32.56
2023-07-19T13:25:50.449Z,32.80
2023-07-19T13:28:22.168Z,33.65
2023-07-19T13:30:51.149Z,34.26
2023-07-19T13:33:20.418Z,34.75
2023-07-19T13:38:24.335Z,33.34
2023-07-19T13:40:54.146Z,34.41
2023-07-19T13:43:23.931Z,33.58
2023-07-19T13:45:52.163Z,34.61
2023-07-19T13:48:20.550Z,34.95
2023-07-19T13:50:48.524Z,31.97
2023-07-19T13:53:18.585Z,34.26
2023-07-19T13:55:48.858Z,33.85
2023-07-19T13:58:17.473Z,33.63
2023-07-19T14:00:47.508Z,33.80
2023-07-19T14:03:17.734Z,33.60
2023-07-19T14:05:50.026Z,34.93
2023-07-19T14:08:18.060Z,33.96
2023-07-19T14:10:46.061Z,34.61
2023-07-19T14:13:28.955Z,34.40
2023-07-19T14:18:33.130Z,33.87
2023-07-19T14:21:10.087Z,33.56
2023-07-19T14:23:41.840Z,34.00
2023-07-19T14:26:09.955Z,35.45
2023-07-19T14:28:38.214Z,35.32
2023-07-19T14:31:09.175Z,35.02
2023-07-19T14:33:39.298Z,35.82
2023-07-19T14:36:08.595Z,35.71
2023-07-19T14:38:36.799Z,36.51
2023-07-19T14:41:06.815Z,35.51
2023-07-19T14:43:34.998Z,36.01
2023-07-19T14:46:03.106Z,36.37
2023-07-19T14:48:35.724Z,36.47
2023-07-19T14:51:07.974Z,37.25
2023-07-19T14:53:39.320Z,36.07
2023-07-19T14:56:09.010Z,36.98
2023-07-19T14:58:38.206Z,37.23
2023-07-19T15:01:13.026Z,36.83
2023-07-19T15:03:43.552Z,37.63
2023-07-19T15:06:14.805Z,38.15
2023-07-19T15:08:43.920Z,38.29
2023-07-19T15:11:13.040Z,37.90
2023-07-19T15:13:41.298Z,39.23
2023-07-19T15:16:12.435Z,39.18
2023-07-19T15:18:46.082Z,41.15
2023-07-19T15:21:15.768Z,38.81
2023-07-19T15:28:49.869Z,40.20
2023-07-19T15:31:18.362Z,38.91
2023-07-19T15:33:49.217Z,37.64
2023-07-19T15:36:18.559Z,38.13
2023-07-19T15:38:46.807Z,38.62
2023-07-19T15:41:45.644Z,39.34
2023-07-19T15:44:33.399Z,38.72
2023-07-19T15:47:02.296Z,40.17
2023-07-19T15:49:32.248Z,40.17
2023-07-19T15:52:04.936Z,39.00
2023-07-19T15:54:35.341Z,39.78
2023-07-19T15:57:04.786Z,38.40
2023-07-19T15:59:34.011Z,38.67
2023-07-19T16:02:02.238Z,39.25
2023-07-19T16:04:31.872Z,40.04
2023-07-19T16:07:01.134Z,41.00
2023-07-19T16:09:35.176Z,40.85
2023-07-19T16:12:03.346Z,41.08
2023-07-19T16:14:32.360Z,41.38
2023-07-19T16:17:01.509Z,41.98
2023-07-19T16:19:39.036Z,40.11
2023-07-19T16:22:08.159Z,41.33
2023-07-19T16:24:36.424Z,41.28
2023-07-19T16:27:04.735Z,41.60
2023-07-19T16:29:33.464Z,41.45
2023-07-19T16:32:01.814Z,42.41
2023-07-19T16:34:30.126Z,43.93
2023-07-19T16:36:59.904Z,44.09
2023-07-19T16:39:28.209Z,41.83
2023-07-19T16:41:56.305Z,42.51
2023-07-19T16:44:26.501Z,42.72
2023-07-19T16:46:57.919Z,42.44
2023-07-19T16:49:27.158Z,43.07
2023-07-19T16:52:00.153Z,42.51
2023-07-19T16:54:28.386Z,43.57
2023-07-19T16:56:58.895Z,43.56
2023-07-19T16:59:27.184Z,43.12
2023-07-19T17:01:56.292Z,43.73
2023-07-19T17:04:25.614Z,44.41
2023-07-19T17:06:55.056Z,44.15
2023-07-19T17:09:24.586Z,44.54
2023-07-19T17:12:01.616Z,45.01
2023-07-19T17:14:29.802Z,45.41
2023-07-19T17:17:10.913Z,45.10
2023-07-19T17:19:40.897Z,45.21
2023-07-19T17:22:10.090Z,45.68
2023-07-19T17:24:39.938Z,46.42
2023-07-19T17:27:09.197Z,46.28
2023-07-19T17:29:38.341Z,47.07
2023-07-19T17:32:07.835Z,46.25
2023-07-19T17:34:36.670Z,45.90
2023-07-19T17:37:07.531Z,46.94
2023-07-19T17:39:35.911Z,46.06
2023-07-19T17:42:08.244Z,46.54
2023-07-19T17:44:41.257Z,48.15
2023-07-19T17:47:10.462Z,48.36
2023-07-19T17:49:42.336Z,48.24
2023-07-19T17:52:11.529Z,48.95
2023-07-19T17:54:39.652Z,49.45
2023-07-19T17:57:14.514Z,49.73
2023-07-19T17:59:43.667Z,49.23
2023-07-19T18:02:12.678Z,50.36
2023-07-19T18:04:41.902Z,49.90
2023-07-19T18:07:11.187Z,50.58
2023-07-19T18:09:41.991Z,49.80
2023-07-19T18:12:12.932Z,49.46
2023-07-19T18:14:45.876Z,49.72
2023-07-19T18:17:16.933Z,49.66
2023-07-19T18:19:47.223Z,50.46
2023-07-19T18:22:16.210Z,49.82
2023-07-19T18:24:44.528Z,50.16
2023-07-19T18:27:13.355Z,50.35
2023-07-19T18:29:48.203Z,49.39
2023-07-19T18:32:17.583Z,49.76
2023-07-19T18:34:47.851Z,50.16
2023-07-19T18:37:17.447Z,50.01
2023-07-19T18:39:48.002Z,50.00
2023-07-19T18:42:17.491Z,50.26
2023-07-19T18:44:47.242Z,50.18
2023-07-19T18:47:17.803Z,50.21
2023-07-19T18:49:47.357Z,50.54
2023-07-19T18:52:19.640Z,50.74
2023-07-19T18:54:48.966Z,51.49
2023-07-19T18:57:17.266Z,51.91
2023-07-19T18:59:48.765Z,51.99
2023-07-19T19:02:18.456Z,51.97
2023-07-19T19:04:52.396Z,52.63
2023-07-19T19:07:22.579Z,53.15
2023-07-19T19:09:51.915Z,53.31
2023-07-19T19:12:21.098Z,53.53
2023-07-19T19:14:50.995Z,54.38
2023-07-19T19:17:20.781Z,54.64
2023-07-19T19:19:50.017Z,54.93
2023-07-19T19:22:19.956Z,55.41
2023-07-19T19:24:48.739Z,55.67
2023-07-19T19:27:19.339Z,55.87
2023-07-19T19:29:50.987Z,56.03
2023-07-19T19:32:20.755Z,56.29
2023-07-19T19:34:51.058Z,56.69
2023-07-19T19:37:20.208Z,57.13
2023-07-19T19:39:49.829Z,57.70
2023-07-19T19:42:18.677Z,58.46
2023-07-19T19:44:50.284Z,58.88
2023-07-19T19:47:21.314Z,59.11
2023-07-19T19:52:21.091Z,59.89
2023-07-19T19:54:50.139Z,60.41
2023-07-19T19:57:21.147Z,60.57
2023-07-19T19:59:51.202Z,60.93
2023-07-19T20:04:58.980Z,61.68
2023-07-19T20:07:28.786Z,61.82
2023-07-19T20:10:02.722Z,62.55
2023-07-19T20:12:46.238Z,62.63
2023-07-19T20:15:15.562Z,63.59
2023-07-19T20:17:47.581Z,65.55
2023-07-19T20:22:50.421Z,66.88
2023-07-19T20:25:24.198Z,66.68
2023-07-19T20:28:09.006Z,67.92
2023-07-19T20:33:11.416Z,67.68
2023-07-19T20:43:15.705Z,68.55
2023-07-19T20:45:44.028Z,68.67
2023-07-19T20:48:16.026Z,69.26
2023-07-19T20:50:44.534Z,69.47
2023-07-19T20:53:13.482Z,69.23
2023-07-19T20:55:41.764Z,69.36
2023-07-19T20:58:10.523Z,69.49
2023-07-19T21:00:38.706Z,69.88
2023-07-19T21:03:06.978Z,69.63
2023-07-19T21:05:36.490Z,70.30
2023-07-19T21:08:04.446Z,70.07
2023-07-19T21:13:02.965Z,71.39
2023-07-19T21:15:31.113Z,71.34
2023-07-19T21:17:59.017Z,71.84
2023-07-19T21:20:29.076Z,71.73
2023-07-19T21:22:59.284Z,72.22
2023-07-19T21:25:27.443Z,71.66
2023-07-19T21:27:55.370Z,72.24
2023-07-19T21:30:23.954Z,71.79
2023-07-19T21:32:52.322Z,72.59
2023-07-19T21:35:20.910Z,73.64
2023-07-19T21:37:48.752Z,74.30
2023-07-19T21:40:18.319Z,74.65
2023-07-19T21:42:46.375Z,75.09
2023-07-19T21:45:14.748Z,74.89
2023-07-19T21:47:43.257Z,75.33
2023-07-19T21:50:11.894Z,74.66
2023-07-19T21:52:39.962Z,74.80
2023-07-19T21:55:09.312Z,75.21
2023-07-19T21:57:38.730Z,74.71
2023-07-19T22:00:07.597Z,75.43
2023-07-19T22:02:44.124Z,75.46
2023-07-19T22:05:14.329Z,75.30
2023-07-19T22:07:42.311Z,75.43
2023-07-19T22:10:10.596Z,75.53
2023-07-19T22:12:40.130Z,75.75
2023-07-19T22:15:09.132Z,75.98
2023-07-19T22:17:37.655Z,76.19
2023-07-19T22:20:06.391Z,76.58
2023-07-19T22:22:34.487Z,76.46
2023-07-19T22:25:02.541Z,76.50
2023-07-19T22:27:30.790Z,76.45
2023-07-19T22:30:00.096Z,76.52
2023-07-19T22:32:28.240Z,76.17
2023-07-19T22:34:56.687Z,75.73
2023-07-19T22:37:25.644Z,75.30
2023-07-19T22:39:53.819Z,75.14
2023-07-19T22:42:21.730Z,75.48
2023-07-19T22:44:49.881Z,75.94
2023-07-19T22:47:19.275Z,75.88
2023-07-19T22:49:49.885Z,76.10
2023-07-19T22:52:18.157Z,76.25
2023-07-19T22:54:46.104Z,76.92
2023-07-19T22:57:15.246Z,76.85
2023-07-19T22:59:45.532Z,76.73
2023-07-19T23:02:15.916Z,76.96
2023-07-19T23:04:47.110Z,76.68
2023-07-19T23:07:15.103Z,76.53
2023-07-19T23:09:43.507Z,76.75
2023-07-19T23:12:11.571Z,76.78
2023-07-19T23:14:39.614Z,76.08
2023-07-19T23:17:07.665Z,75.60
2023-07-19T23:19:36.866Z,75.31
2023-07-19T23:22:06.442Z,75.10
2023-07-19T23:24:37.218Z,74.93
2023-07-19T23:27:05.479Z,74.79
2023-07-19T23:29:33.625Z,74.58
2023-07-19T23:32:01.623Z,74.39
2023-07-19T23:34:29.655Z,74.08
2023-07-19T23:36:58.241Z,73.78
2023-07-19T23:39:28.269Z,74.76
2023-07-19T23:41:56.647Z,75.46
2023-07-19T23:44:25.329Z,75.81
2023-07-19T23:46:57.549Z,76.51
2023-07-19T23:49:25.639Z,76.95
2023-07-19T23:51:53.626Z,77.27
2023-07-19T23:54:21.634Z,77.95
2023-07-19T23:56:51.475Z,78.04
2023-07-19T23:59:20.412Z,78.08
